• Join FlightAware (Why Join?)
  • Login
  • US Flag 
09:52AM EDT


 

Airport Tracker/Info


-or-


 

Live Flight TrackerFlight Track Log ✈ OPT732 ✈ 05-May-2013 ✈ KGSP - KMEM

Flight Track Log - Related Links

Times and Time Zones

All times are in EDT time to prevent confusion due to time zone crossing. See the OPT732 flight status page for this flight to view local times or setup timezone preferences in your user account.

Time Position Orientation Groundspeed Altitude Reporting Facility
EDT Latitude Longitude Course Direction KTS MPH feet Rate Location/Type
12:44PM 34.9917 -82.2436 289° West 311 358 6,600  Level Atlanta Center
12:45PM 35.0136 -82.3344 286° West 339 390 9,600 2,760 Climbing Atlanta Center
12:46PM 35.0422 -82.4406 288° West 339 390 12,200 2,460 Climbing Atlanta Center
12:48PM 35.1056 -82.6678 289° West 349 402 17,100 2,400 Climbing Atlanta Center
12:49PM 35.1192 -82.9920 289° West  Level FlightAware Approximate
12:49PM 35.1403 -82.7842 290° West 355 409 19,500  Level Atlanta Center
12:50PM 35.1568 -83.1236 289° West  Level FlightAware Approximate
12:50PM 35.1769 -82.9233 288° West 377 434 22,200  Level Atlanta Center
12:51PM 35.2092 -83.0372 289° West 387 445 24,400 2,220 Climbing Atlanta Center
12:52PM 35.2436 -83.1664 288° West 400 460 26,700 1,920 Climbing Atlanta Center
12:53PM 35.2822 -83.3086 288° West 419 482 28,300 1,620 Climbing Atlanta Center
12:54PM 35.3225 -83.4583 288° West 441 507 30,000 1,200 Climbing Atlanta Center
12:55PM 35.3650 -83.6211 288° West 475 547 30,800 900 Climbing Atlanta Center
12:56PM 35.4114 -83.7864 289° West 506 582 31,900 1,200 Climbing Atlanta Center
12:57PM 35.4553 -83.9622 287° West 525 604 33,200 1,440 Climbing Atlanta Center
12:58PM 35.5014 -84.1331 288° West 531 611 34,800 900 Climbing Atlanta Center
12:59PM 35.5469 -84.3042 288° West 536 617 35,000 420 Climbing Atlanta Center
01:00PM 35.5922 -84.4831 287° West 536 617 35,700 900 Climbing Atlanta Center
01:01PM 35.6144 -84.6544 279° West 527 606 36,900 1,200 Climbing Atlanta Center
01:02PM 35.5739 -84.8150 253° West 497 572 38,100 1,380 Climbing Atlanta Center
01:03PM 35.5228 -84.9728 248° West 491 565 39,700 1,560 Climbing Atlanta Center
01:04PM 35.4800 -85.1175 250° West 477 549 41,300 1,260 Climbing Atlanta Center
01:05PM 35.4325 -85.2647 248° West 472 543 42,300 840 Climbing Atlanta Center
01:06PM 35.3872 -85.4092 249° West 467 537 43,000 300 Climbing Atlanta Center
01:07PM 35.3417 -85.5561 249° West 467 537 43,000  Level Atlanta Center
01:08PM 35.2939 -85.7081 249° West 472 543 43,000  Level Atlanta Center
01:09PM 35.2414 -85.8722 249° West 472 543 43,000  Level Atlanta Center
01:10PM 35.1931 -86.0286 249° West 479 551 43,000  Level Atlanta Center
01:11PM 35.1492 -86.1700 249° West 492 566 43,000  Level Atlanta Center
01:12PM 35.1056 -86.2908 246° West 495 570 43,000  Level Memphis Center
01:13PM 35.0564 -86.4481 249° West 489 563 43,000  Level Memphis Center
01:14PM 35.0047 -86.6050 248° West 494 568 43,000  Level Memphis Center
01:15PM 34.9553 -86.7619 249° West 499 574 43,000  Level Memphis Center
01:16PM 34.8972 -86.9289 247° West 494 568 43,000  Level Memphis Center
01:17PM 34.8431 -87.0853 247° West 500 575 43,000  Level Memphis Center
01:18PM 34.7928 -87.2392 248° West 492 566 43,000 -540 Level Memphis Center
01:19PM 34.7400 -87.3825 246° West 481 554 42,000 -1,200 Descending Memphis Center
01:20PM 34.6958 -87.5406 251° West 481 554 40,600 -1,500 Descending Memphis Center
01:21PM 34.6469 -87.6939 249° West 481 554 39,100 -1,320 Descending Memphis Center
01:22PM 34.6061 -87.8314 250° West 487 560 38,000 -1,200 Descending Memphis Center
01:23PM 34.5925 -87.9881 264° West 476 548 36,700 -1,260 Descending Memphis Center
01:24PM 34.6081 -88.1517 277° West 482 555 35,500 -1,560 Descending Memphis Center
01:25PM 34.6192 -88.3256 274° West 487 560 33,600 -1,800 Descending Memphis Center
01:26PM 34.5289 -88.4161 220° Southwest 385 443 31,900 -1,800 Descending Memphis Center
01:27PM 34.4361 -88.4911 214° Southwest 378 435 30,100 -1,860 Descending Memphis Center
01:28PM 34.4361 -88.6297 270° West 374 430 28,200 -1,860 Descending Memphis Center
01:29PM 34.4942 -88.7544 299° West 369 425 26,400 -1,920 Descending Memphis Center
01:30PM 34.5478 -88.8769 298° West 389 448 24,400 -2,100 Descending Memphis Center
01:31PM 34.5906 -88.9644 301° West 388 447 22,200 -2,700 Descending Memphis Center
01:32PM 34.6419 -89.0847 297° West 352 405 19,100 -2,880 Descending Memphis Center
01:33PM 34.6847 -89.1878 297° West 341 392 16,500 -2,880 Descending Memphis Center
01:34PM 34.7189 -89.2833 294° West 323 372 13,400 -3,240 Descending Memphis Center
01:35PM 34.7156 -89.3844 268° West 302 348 10,100 -2,880 Descending Memphis Center
01:36PM 34.7142 -89.4778 269° West 290 334 7,700 -2,220 Descending Memphis Center
01:37PM 34.7106 -89.5614 267° West 284 327 5,700 -1,380 Descending Memphis Center
01:38PM 34.7028 -89.6422 263° West 270 311 5,000 -600 Descending Memphis Center
01:39PM 34.6989 -89.7156 266° West 230 265 4,500 -900 Descending Memphis Center
01:40PM 34.6931 -89.7939 265° West 225 259 3,300 -780 Descending Memphis Center
01:41PM 34.6933 -89.8644 270° West 218 251 3,000 -180 Descending Memphis Center
01:42PM 34.7144 -89.9250 293° West 213 245 3,000  Level Memphis Center
01:43PM 34.7625 -89.9578 331° Northwest 196 226 3,000 -540 Level Memphis Center
01:44PM 34.8086 -89.9700 348° North 174 200 2,000 -540 Descending Memphis Center
01:45PM 34.8503 -89.9700 360° North 163 188 2,000  Level Memphis Center
01:46PM 34.9000 -89.9667 North 148 170 2,000 -120 Level KMEM
01:47PM 34.9500 -89.9667 360° North 152 175 1,800 -420 Descending KMEM
01:48PM 34.9833 -89.9667 360° North 129 148 1,200 -600 Descending KMEM
01:50PM 35.0333 -89.9667 309° West  Level FlightAware Approximate
01:57PM 35.0424 -89.9767 309° West  Level Estimated
01:58PM 35.0424 -89.9767 309° West  Level Estimated
01:59PM 35.0424 -89.9767 309° West  Level Estimated
02:00PM 35.0424 -89.9767 309° West  Level Estimated
02:01PM 35.0424 -89.9767 309° West  Level Estimated
02:02PM 35.0424 -89.9767 309° West  Level Estimated